Latest Weather Observations for Maryborough

IDQ60801

Issued at 2:02 am EST Monday 20 November 2017 (issued every 30 minutes, with the page automatically refreshed every 10 minutes)

About weather observations | Map of weather stations | Latest weather observations for QLD | Other Formats
Station Details ID: 040126 Name: MARYBOROUGH Lat: -25.51 Lon: 152.72 Height: 8.98 m
Data from the previous 72 hours. | See also: Recent months at Maryborough
Date/Time
EST
Temp
°C
App
Temp
°C
Dew
Point
°C
Rel
Hum
%
Delta-T
°C
Wind Press
QNH
hPa
Press
MSL
hPa
Rain since
9am
mm
Dir  Spd
km/h
Gust
km/h
Spd
kts
Gust
kts
20/02:00am 16.5 16.1 15.2 92 0.8 S 11 15 6 8 1016.3 - 1.0
20/01:30am 16.6 16.2 15.1 91 0.9 S 11 13 6 7 1016.2 - 1.0
20/01:00am 16.7 16.7 15.1 90 0.9 S 9 11 5 6 1016.6 - 1.0
20/12:30am 17.5 17.8 16.0 91 0.9 S 9 11 5 6 1016.7 - 1.0
20/12:00am 17.4 17.6 15.7 90 1.0 S 9 9 5 5 1017.1 1017.0 1.0
 
Date/Time
EST
Temp
°C
App
Temp
°C
Dew
Point
°C
Rel
Hum
%
Delta-T
°C
Wind Press
QNH
hPa
Press
MSL
hPa
Rain since
9am
mm
Dir  Spd
km/h
Gust
km/h
Spd
kts
Gust
kts
19/11:30pm 17.7 17.2 16.0 90 1.0 S 13 17 7 9 1017.3 - 1.0
19/11:06pm 17.8 18.1 16.1 90 1.0 SSW 9 13 5 7 1017.4 - 1.0
19/11:00pm 17.8 18.1 16.0 89 1.1 S 9 13 5 7 1017.5 - 0.8
19/10:50pm 17.7 17.6 15.9 89 1.1 S 11 13 6 7 1017.7 - 0.8
19/10:30pm 17.4 17.1 15.4 88 1.2 S 11 15 6 8 1017.7 - 0.2
19/10:00pm 17.4 16.9 14.9 85 1.4 S 11 13 6 7 1017.9 - 0.2
19/09:30pm 18.3 18.0 15.4 83 1.7 S 11 15 6 8 1018.0 - 0.2
19/09:00pm 18.4 18.0 15.3 82 1.8 S 11 13 6 7 1018.0 1017.9 0.2
19/08:30pm 18.7 18.3 15.2 80 2.1 SSE 11 15 6 8 1017.9 - 0.2
19/08:00pm 18.9 18.5 15.2 79 2.2 S 11 15 6 8 1017.8 - 0.2
19/07:30pm 19.5 18.5 15.6 78 2.3 SSE 15 19 8 10 1017.6 - 0.2
19/07:00pm 19.6 18.8 15.0 75 2.7 SE 13 17 7 9 1017.5 - 0.2
19/06:30pm 20.5 19.0 15.3 72 3.1 SE 17 24 9 13 1017.3 - 0.2
19/06:00pm 21.7 19.6 14.8 65 4.1 SE 19 30 10 16 1016.8 1016.7 0.2
19/05:30pm 22.3 20.1 14.4 61 4.6 ESE 19 28 10 15 1016.2 - 0.2
19/05:00pm 22.2 22.2 15.3 65 4.1 E 9 15 5 8 1016.0 - 0.2
19/04:30pm 23.5 21.8 15.8 62 4.7 ESE 19 28 10 15 1015.6 - 0.2
19/04:00pm 23.3 21.5 15.4 61 4.7 SE 19 28 10 15 1015.3 - 0.2
19/03:30pm 23.4 21.3 15.2 60 4.9 ESE 20 33 11 18 1015.4 - 0.2
19/03:00pm 23.9 20.8 14.6 56 5.5 ESE 24 35 13 19 1015.3 1015.2 0.2
19/02:30pm 23.9 20.8 14.6 56 5.5 ESE 24 39 13 21 1015.4 - 0.2
19/02:00pm 24.8 21.7 14.6 53 6.1 ESE 24 32 13 17 1015.4 - 0.2
19/01:30pm 24.6 21.7 17.1 63 4.6 SE 28 39 15 21 1015.9 - 0.2
19/01:00pm 25.6 23.7 15.3 53 6.2 ESE 19 30 10 16 1016.1 - 0.2
19/12:30pm 25.8 24.5 17.2 59 5.4 SE 20 32 11 17 1016.3 - 0.2
19/12:00pm 24.7 23.0 16.2 59 5.2 SE 20 35 11 19 1016.4 1016.3 0.2
19/11:30am 24.5 21.9 14.9 55 5.7 ESE 22 32 12 17 1016.5 - 0.2
19/11:00am 25.1 23.0 14.6 52 6.3 ESE 19 30 10 16 1016.6 - 0.2
19/10:30am 25.2 24.1 16.3 57 5.5 E 17 24 9 13 1016.9 - 0.2
19/10:00am 24.2 23.6 15.7 59 5.1 ESE 13 19 7 10 1017.0 - 0.2
19/09:30am 24.8 24.5 16.5 60 5.1 ESE 13 20 7 11 1016.8 - 0.2
19/09:00am 23.0 23.9 18.3 75 2.9 S 11 19 6 10 1016.7 1016.6 18.0
19/08:30am 21.6 22.4 19.0 85 1.6 SSW 13 17 7 9 1016.6 - 18.0
19/08:00am 19.8 20.3 18.3 91 0.9 SSE 13 17 7 9 1016.4 - 18.0
19/07:30am 18.7 19.3 17.7 94 0.6 SSE 11 17 6 9 1016.3 - 18.0
19/07:00am 17.5 17.8 16.9 96 0.4 SSE 11 17 6 9 1016.2 - 18.0
19/06:30am 17.0 16.7 16.5 97 0.3 S 13 17 7 9 1015.9 - 18.0
19/06:00am 16.9 17.0 16.6 98 0.2 S 11 17 6 9 1015.4 1015.3 18.0
19/05:30am 15.8 15.9 15.5 98 0.2 SSW 9 11 5 6 1015.0 - 18.0
19/05:00am 15.3 14.8 15.0 98 0.2 S 11 13 6 7 1014.7 - 18.0
19/04:39am 15.1 15.4 14.6 97 0.3 SSW 6 9 3 5 1014.6 - 18.0
19/04:34am 15.3 15.5 14.8 97 0.3 SSW 7 9 4 5 1014.6 - 18.0
19/04:30am 15.4 15.7 14.9 97 0.3 SSW 7 9 4 5 1014.6 - 18.0
19/04:09am 15.7 15.4 15.4 98 0.2 SSW 11 15 6 8 1014.5 - 18.0
19/04:06am 15.7 15.4 15.4 98 0.2 SSW 11 15 6 8 1014.5 - 18.0
19/04:00am 15.6 15.6 15.1 97 0.3 SW 9 13 5 7 1014.4 - 18.0
19/03:35am 15.7 15.3 15.2 97 0.3 SSW 11 13 6 7 1014.4 - 18.0
19/03:30am 15.7 15.7 15.2 97 0.3 SW 9 13 5 7 1014.3 - 18.0
19/03:21am 15.7 15.7 15.2 97 0.3 SW 9 13 5 7 1014.4 - 18.0
19/03:09am 15.8 15.8 15.3 97 0.3 SW 9 13 5 7 1014.4 - 18.0
19/03:03am 15.8 15.8 15.3 97 0.3 SW 9 11 5 6 1014.4 - 18.0
19/03:00am 15.9 16.0 15.4 97 0.3 SW 9 11 5 6 1014.4 1014.3 18.0
19/02:30am 15.8 16.2 15.2 96 0.3 SW 7 9 4 5 1014.5 - 18.0
19/02:25am 15.9 16.3 15.3 96 0.3 SW 7 9 4 5 1014.5 - 18.0
19/02:00am 16.3 16.1 15.8 97 0.3 SSW 11 17 6 9 1014.8 - 18.0
19/01:56am 16.4 16.3 15.9 97 0.3 SW 11 17 6 9 1014.9 - 18.0
19/01:30am 16.1 16.2 15.6 97 0.3 WSW 9 11 5 6 1015.2 - 18.0
19/01:00am 15.7 15.7 15.1 96 0.3 SE 9 11 5 6 1015.3 - 18.0
19/12:30am 16.2 16.7 15.6 96 0.3 S 7 9 4 5 1015.8 - 18.0
19/12:00am 16.6 17.8 15.8 95 0.5 SSE 4 7 2 4 1015.9 1015.8 18.0
 
Date/Time
EST
Temp
°C
App
Temp
°C
Dew
Point
°C
Rel
Hum
%
Delta-T
°C
Wind Press
QNH
hPa
Press
MSL
hPa
Rain since
9am
mm
Dir  Spd
km/h
Gust
km/h
Spd
kts
Gust
kts
18/11:59pm 16.6 17.8 16.0 96 0.4 SSE 4 7 2 4 1015.9 - 18.0
18/11:30pm 17.0 18.0 16.4 96 0.4 SE 6 7 3 4 1016.4 - 18.0
18/11:26pm 16.9 17.9 16.3 96 0.4 SE 6 7 3 4 1016.4 - 18.0
18/11:00pm 16.7 17.9 15.9 95 0.5 SE 4 7 2 4 1016.6 - 18.0
18/10:30pm 16.9 16.9 16.3 96 0.4 SSE 11 15 6 8 1016.7 - 18.0
18/10:00pm 17.2 17.3 16.6 96 0.4 SSE 11 15 6 8 1016.7 - 18.0
18/09:30pm 17.3 17.9 16.7 96 0.4 S 9 11 5 6 1016.9 - 18.0
18/09:00pm 17.2 18.1 16.6 96 0.4 SE 7 11 4 6 1017.1 1017.0 18.0
18/08:30pm 17.4 17.5 16.6 95 0.5 S 11 13 6 7 1017.3 - 18.0
18/08:01pm 17.4 17.5 16.6 95 0.5 S 11 15 6 8 1017.3 - 17.8
18/08:00pm 17.4 17.5 16.6 95 0.5 SSE 11 15 6 8 1017.2 - 17.8
18/07:30pm 17.5 17.7 16.7 95 0.5 SSE 11 15 6 8 1017.1 - 17.8
18/07:07pm 17.6 17.8 16.8 95 0.5 S 11 15 6 8 1016.9 - 16.6
18/07:00pm 17.5 17.6 16.5 94 0.6 S 11 15 6 8 1016.8 - 16.0
18/06:30pm 17.8 17.6 16.8 94 0.6 SE 13 19 7 10 1016.5 - 13.8
18/06:10pm 17.8 18.0 16.7 93 0.7 SSE 11 15 6 8 1016.4 - 12.0
18/06:00pm 17.8 18.3 16.5 92 0.8 SSE 9 13 5 7 1016.2 1016.1 11.0
18/05:30pm 17.7 17.7 16.2 91 0.9 SSE 11 15 6 8 1015.8 - 9.0
18/05:00pm 18.0 17.7 16.5 91 0.9 SSE 13 17 7 9 1015.3 - 7.4
18/04:30pm 18.2 17.9 16.5 90 1.0 S 13 19 7 10 1015.1 - 6.0
18/04:00pm 18.7 18.5 16.8 89 1.1 S 13 17 7 9 1015.0 - 5.2
18/03:30pm 18.8 19.8 16.8 88 1.2 SW 7 9 4 5 1014.7 - 4.6
18/03:00pm 18.6 19.4 16.4 87 1.3 S 7 9 4 5 1014.7 1014.6 3.4
18/02:30pm 19.0 19.3 17.0 88 1.2 SE 11 15 6 8 1014.9 - 2.4
18/02:00pm 18.8 19.4 16.8 88 1.2 ESE 9 13 5 7 1015.1 - 2.4
18/01:30pm 18.7 18.4 16.5 87 1.3 ESE 13 19 7 10 1015.4 - 1.6
18/01:00pm 19.4 17.5 16.6 84 1.7 SE 22 28 12 15 1015.7 - 0.0
18/12:34pm 20.4 18.6 16.0 76 2.6 SE 20 28 11 15 1015.8 - 0.0
18/12:30pm 20.4 18.6 16.0 76 2.6 SE 20 28 11 15 1015.8 - 0.0
18/12:00pm 21.1 18.7 16.3 74 2.9 SE 24 30 13 16 1015.9 1015.8 0.0
18/11:37am 20.8 18.8 16.4 76 2.7 SE 22 28 12 15 1016.0 - 0.0
18/11:30am 21.2 19.7 16.8 76 2.7 SSE 20 28 11 15 1016.1 - 0.0
18/11:00am 21.8 20.3 17.6 77 2.6 SE 22 28 12 15 1016.0 - 0.0
18/10:30am 20.5 19.6 16.9 80 2.2 S 17 19 9 10 1016.4 - 0.0
18/10:00am 20.1 19.5 16.7 81 2.1 SSE 15 19 8 10 1016.6 - 0.0
18/09:31am 20.2 20.7 17.4 84 1.7 S 11 17 6 9 1016.8 - 0.0
18/09:30am 20.3 20.8 17.5 84 1.7 S 11 17 6 9 1016.8 - 0.0
18/09:00am 19.9 20.3 17.3 85 1.6 S 11 15 6 8 1017.1 1017.0 0.2
18/08:47am 19.8 19.5 17.4 86 1.5 S 15 19 8 10 1017.0 - 0.2
18/08:30am 19.9 19.7 17.7 87 1.4 S 15 19 8 10 1017.0 - 0.2
18/08:00am 19.1 18.3 16.1 83 1.8 S 15 20 8 11 1017.2 - 0.0
18/07:30am 19.8 18.1 16.3 80 2.1 S 20 28 11 15 1017.2 - 0.0
18/07:00am 20.0 19.1 16.8 82 1.9 S 17 20 9 11 1017.0 - 0.0
18/06:30am 19.7 20.4 17.1 85 1.6 SW 9 13 5 7 1016.7 - 0.0
18/06:00am 19.1 19.4 16.9 87 1.3 SW 11 15 6 8 1016.5 1016.4 0.0
18/05:30am 18.7 19.7 16.8 89 1.1 SW 7 15 4 8 1016.3 - 0.0
18/05:00am 18.4 19.3 16.7 90 1.0 SSW 7 9 4 5 1015.8 - 0.0
18/04:30am 17.9 18.6 16.2 90 1.0 S 7 9 4 5 1015.4 - 0.0
18/04:00am 17.9 18.9 16.4 91 0.9 S 6 9 3 5 1015.1 - 0.0
18/03:30am 17.9 18.0 16.4 91 0.9 S 11 17 6 9 1014.9 - 0.0
18/03:00am 17.7 19.8 16.2 91 0.9 CALM 0 0 0 0 1014.8 1014.7 0.0
18/02:30am 17.6 19.6 16.1 91 0.9 CALM 0 6 0 3 1014.8 - 0.0
18/02:00am 17.9 19.3 16.4 91 0.9 S 4 6 2 3 1014.8 - 0.0
18/01:30am 17.7 18.4 16.2 91 0.9 ESE 7 13 4 7 1015.2 - 0.0
18/01:00am 16.4 17.9 14.6 89 1.0 CALM 0 0 0 0 1015.4 - 0.0
18/12:30am 16.4 17.1 14.4 88 1.1 ESE 4 6 2 3 1015.7 - 0.0
18/12:00am 16.6 16.8 14.6 88 1.1 ESE 7 9 4 5 1016.0 1015.9 0.0
 
Date/Time
EST
Temp
°C
App
Temp
°C
Dew
Point
°C
Rel
Hum
%
Delta-T
°C
Wind Press
QNH
hPa
Press
MSL
hPa
Rain since
9am
mm
Dir  Spd
km/h
Gust
km/h
Spd
kts
Gust
kts
17/11:30pm 16.4 16.6 14.2 87 1.3 ESE 6 7 3 4 1016.4 - 0.0
17/11:00pm 17.0 17.3 14.6 86 1.4 ESE 6 6 3 3 1016.5 - 0.0
17/10:30pm 17.5 17.8 15.0 85 1.5 ESE 7 7 4 4 1016.8 - 0.0
17/10:00pm 17.1 17.3 14.2 83 1.7 ESE 6 7 3 4 1017.0 - 0.0
17/09:30pm 17.9 19.4 14.6 81 1.9 CALM 0 0 0 0 1017.0 - 0.0
17/09:00pm 18.5 20.0 14.6 78 2.3 CALM 0 0 0 0 1016.7 1016.6 0.0
17/08:30pm 19.5 20.0 15.0 75 2.6 ESE 6 7 3 4 1016.5 - 0.0
17/08:00pm 20.7 21.2 15.5 72 3.1 ESE 7 9 4 5 1016.4 - 0.0
17/07:30pm 21.6 21.8 15.7 69 3.5 E 9 13 5 7 1016.1 - 0.0
17/07:00pm 21.8 22.3 15.6 68 3.7 E 7 11 4 6 1015.9 - 0.0
17/06:30pm 22.3 22.1 15.6 66 4.0 E 11 19 6 10 1015.5 - 0.0
17/06:00pm 22.8 22.3 14.9 61 4.7 E 11 19 6 10 1015.2 1015.1 0.0
17/05:30pm 23.4 22.4 14.7 58 5.2 E 13 20 7 11 1015.1 - 0.0
17/05:00pm 24.0 22.7 14.7 56 5.5 ESE 15 24 8 13 1015.0 - 0.0
17/04:30pm 24.7 22.8 15.3 56 5.7 ESE 19 30 10 16 1015.0 - 0.0
17/04:00pm 25.4 23.5 15.1 53 6.2 ESE 19 30 10 16 1015.0 - 0.0
17/03:30pm 26.3 24.2 14.7 48 7.0 ESE 19 28 10 15 1015.3 - 0.0
17/03:00pm 25.8 23.6 13.3 46 7.3 E 17 24 9 13 1015.8 1015.7 0.0
17/02:30pm 26.4 24.6 14.5 48 7.1 ESE 17 24 9 13 1015.8 - 0.0
17/02:00pm 26.7 24.9 14.5 47 7.3 ESE 17 28 9 15 1015.9 - 0.0
17/01:30pm 27.5 25.8 14.8 45 7.7 SE 17 24 9 13 1016.1 - 0.0
17/01:00pm 27.0 24.9 13.7 44 7.9 ESE 17 30 9 16 1016.5 - 0.0
17/12:30pm 26.5 24.8 12.5 41 8.1 E 13 20 7 11 1016.7 - 0.0
17/12:00pm 26.6 24.7 13.0 43 7.9 E 15 26 8 14 1017.0 1016.9 0.0
17/11:30am 26.2 23.6 13.7 46 7.4 SE 20 32 11 17 1017.1 - 0.0
17/11:00am 25.5 23.7 13.4 47 7.1 E 15 26 8 14 1017.4 - 0.0
17/10:30am 27.1 25.8 14.8 47 7.4 E 15 20 8 11 1017.6 - 0.0
17/10:00am 26.3 25.2 15.4 51 6.6 SE 15 26 8 14 1017.6 - 0.0
17/09:30am 25.8 26.1 16.9 58 5.5 ESE 11 19 6 10 1017.5 - 0.0
17/09:00am 25.1 25.2 16.5 59 5.3 NE 11 17 6 9 1017.7 1017.6 0.0
17/08:30am 23.5 23.4 16.1 63 4.5 ESE 11 17 6 9 1017.6 - 0.0
17/08:00am 24.3 24.3 17.1 64 4.5 ESE 13 20 7 11 1017.4 - 0.0
17/07:30am 22.7 23.3 16.7 69 3.7 SE 9 13 5 7 1017.6 - 0.0
17/07:00am 21.1 22.7 18.3 84 1.7 S 7 9 4 5 1017.4 - 0.0
17/06:30am 19.4 20.5 18.1 92 0.8 SSE 9 11 5 6 1017.0 - 0.0
17/06:00am 17.9 19.1 17.3 96 0.4 S 7 9 4 5 1016.7 1016.6 0.0
17/05:31am 15.3 16.7 14.5 95 0.5 CALM 0 0 0 0 1016.7 - 0.0
17/05:30am 15.3 16.7 14.5 95 0.5 CALM 0 0 0 0 1016.7 - 0.0
17/05:00am 15.0 16.3 14.0 94 0.6 CALM 0 0 0 0 1016.4 - 0.0
17/04:30am 14.9 16.1 13.8 93 0.6 CALM 0 0 0 0 1016.1 - 0.0
17/04:00am 15.2 15.7 14.1 93 0.6 S 4 6 2 3 1015.9 - 0.0
17/03:53am 15.3 15.5 14.2 93 0.6 S 6 6 3 3 1015.8 - 0.0
17/03:30am 15.5 15.6 14.4 93 0.6 S 7 9 4 5 1015.7 - 0.0
17/03:00am 15.6 15.7 14.5 93 0.6 S 7 7 4 4 1015.9 1015.8 0.0
17/02:30am 15.7 16.0 14.4 92 0.7 SSW 6 7 3 4 1016.1 - 0.0

Other Formats:

Comma delimited format used in spreadsheet applications
http://www.bom.gov.au/fwo/IDQ60801/IDQ60801.94567.axf

JavaScript Object Notation format (JSON) in row-major order
http://www.bom.gov.au/fwo/IDQ60801/IDQ60801.94567.json